CFSGK CYXU-CYXU
Flight info
| Callsign | CFSGK |
|---|---|
| Flight time | 0h 17m |
| Altitude | |
| Route | CIRCUITS |
| Aircraft | DA40 |
Departure
| Time | 2026-04-24 23:22 |
|---|---|
| Airport | London International Airport (CYXU) |
Arrival
| Time | 2026-04-24 23:40 |
|---|---|
| Airport | London International Airport (CYXU) |
| Time | Latitude | Longitude | Altitude | Speed | Heading |
|---|---|---|---|---|---|
| 2026-04-24 23:02 | 43.03528 | -81.16184 | 907 ft | 0 kts | 75° |
| 2026-04-24 23:13 | 43.03527 | -81.16182 | 906 ft | 0 kts | 135° |
| 2026-04-24 23:13 | 43.03519 | -81.16185 | 906 ft | 1 kts | 230° |
| 2026-04-24 23:13 | 43.03519 | -81.16200 | 906 ft | 2 kts | 307° |
| 2026-04-24 23:14 | 43.03535 | -81.16214 | 916 ft | 0 kts | 306° |
| 2026-04-24 23:14 | 43.03539 | -81.16222 | 907 ft | 0 kts | 310° |
| 2026-04-24 23:16 | 43.03543 | -81.16226 | 908 ft | 0 kts | 332° |
| 2026-04-24 23:16 | 43.03554 | -81.16222 | 904 ft | 4 kts | 31° |
| 2026-04-24 23:17 | 43.03577 | -81.16214 | 907 ft | 6 kts | 351° |
| 2026-04-24 23:17 | 43.03621 | -81.16247 | 910 ft | 7 kts | 311° |
| 2026-04-24 23:17 | 43.03655 | -81.16270 | 910 ft | 0 kts | 360° |
| 2026-04-24 23:17 | 43.03671 | -81.16273 | 910 ft | 0 kts | 350° |
| 2026-04-24 23:19 | 43.03728 | -81.16285 | 910 ft | 14 kts | 347° |
| 2026-04-24 23:19 | 43.03804 | -81.16296 | 911 ft | 5 kts | 20° |
| 2026-04-24 23:20 | 43.03821 | -81.16263 | 911 ft | 6 kts | 81° |
| 2026-04-24 23:20 | 43.03844 | -81.16100 | 910 ft | 36 kts | 78° |
| 2026-04-24 23:20 | 43.03911 | -81.15617 | 918 ft | 65 kts | 78° |
| 2026-04-24 23:20 | 43.04001 | -81.15016 | 1037 ft | 65 kts | 85° |
| 2026-04-24 23:21 | 43.04068 | -81.14386 | 1134 ft | 69 kts | 86° |
| 2026-04-24 23:21 | 43.04106 | -81.13731 | 1256 ft | 71 kts | 88° |
| 2026-04-24 23:21 | 43.04140 | -81.13027 | 1319 ft | 74 kts | 88° |
| 2026-04-24 23:21 | 43.04200 | -81.12360 | 1383 ft | 69 kts | 86° |
| 2026-04-24 23:22 | 43.04277 | -81.11724 | 1415 ft | 70 kts | 86° |
| 2026-04-24 23:22 | 43.04296 | -81.11090 | 1488 ft | 65 kts | 104° |
| 2026-04-24 23:22 | 43.04069 | -81.10563 | 1549 ft | 66 kts | 131° |
| 2026-04-24 23:22 | 43.03664 | -81.10202 | 1593 ft | 73 kts | 153° |
| 2026-04-24 23:23 | 43.03160 | -81.10043 | 1639 ft | 74 kts | 165° |
| 2026-04-24 23:23 | 43.02645 | -81.10095 | 1690 ft | 77 kts | 190° |
| 2026-04-24 23:23 | 43.02149 | -81.10343 | 1733 ft | 79 kts | 202° |
| 2026-04-24 23:23 | 43.01747 | -81.10891 | 1775 ft | 84 kts | 232° |
| 2026-04-24 23:24 | 43.01508 | -81.11631 | 1822 ft | 89 kts | 243° |
| 2026-04-24 23:24 | 43.01377 | -81.12148 | 1847 ft | 87 kts | 245° |
| 2026-04-24 23:24 | 43.01184 | -81.12906 | 1906 ft | 83 kts | 244° |
| 2026-04-24 23:24 | 43.00972 | -81.13621 | 2003 ft | 78 kts | 243° |
| 2026-04-24 23:25 | 43.00781 | -81.14329 | 2042 ft | 79 kts | 247° |
| 2026-04-24 23:25 | 43.00616 | -81.15045 | 2083 ft | 79 kts | 252° |
| 2026-04-24 23:25 | 43.00489 | -81.15779 | 2098 ft | 79 kts | 251° |
| 2026-04-24 23:25 | 43.00384 | -81.16508 | 2083 ft | 79 kts | 254° |
| 2026-04-24 23:26 | 43.00289 | -81.17231 | 2096 ft | 75 kts | 253° |
| 2026-04-24 23:26 | 43.00210 | -81.17953 | 2063 ft | 78 kts | 256° |
| 2026-04-24 23:26 | 43.00161 | -81.18661 | 2064 ft | 73 kts | 255° |
| 2026-04-24 23:26 | 43.00083 | -81.19370 | 2099 ft | 78 kts | 251° |
| 2026-04-24 23:27 | 42.99988 | -81.20102 | 2146 ft | 78 kts | 257° |
| 2026-04-24 23:27 | 43.00177 | -81.20820 | 2123 ft | 88 kts | 308° |
| 2026-04-24 23:27 | 43.00717 | -81.21267 | 2122 ft | 95 kts | 339° |
| 2026-04-24 23:27 | 43.01356 | -81.21570 | 2148 ft | 95 kts | 339° |
| 2026-04-24 23:28 | 43.01983 | -81.21894 | 2066 ft | 98 kts | 344° |
| 2026-04-24 23:28 | 43.02644 | -81.21867 | 2016 ft | 95 kts | 30° |
| 2026-04-24 23:28 | 43.03075 | -81.21244 | 1946 ft | 89 kts | 62° |
| 2026-04-24 23:28 | 43.03291 | -81.20509 | 1841 ft | 81 kts | 90° |
| 2026-04-24 23:29 | 43.03340 | -81.19750 | 1704 ft | 77 kts | 91° |
| 2026-04-24 23:29 | 43.03429 | -81.19023 | 1535 ft | 74 kts | 84° |
| 2026-04-24 23:29 | 43.03531 | -81.18335 | 1372 ft | 73 kts | 85° |
| 2026-04-24 23:29 | 43.03617 | -81.17691 | 1244 ft | 62 kts | 83° |
| 2026-04-24 23:30 | 43.03707 | -81.17135 | 1123 ft | 60 kts | 89° |
| 2026-04-24 23:30 | 43.03781 | -81.16553 | 1017 ft | 64 kts | 84° |
| 2026-04-24 23:30 | 43.03864 | -81.15967 | 912 ft | 60 kts | 83° |
| 2026-04-24 23:30 | 43.03937 | -81.15442 | 911 ft | 64 kts | 77° |
| 2026-04-24 23:31 | 43.04038 | -81.14816 | 985 ft | 70 kts | 82° |
| 2026-04-24 23:31 | 43.04128 | -81.14233 | 1164 ft | 58 kts | 83° |
| 2026-04-24 23:31 | 43.04211 | -81.13677 | 1240 ft | 62 kts | 83° |
| 2026-04-24 23:31 | 43.04283 | -81.13085 | 1303 ft | 64 kts | 85° |
| 2026-04-24 23:32 | 43.04350 | -81.12482 | 1371 ft | 64 kts | 86° |
| 2026-04-24 23:32 | 43.04412 | -81.11877 | 1453 ft | 64 kts | 88° |
| 2026-04-24 23:32 | 43.04458 | -81.11281 | 1548 ft | 63 kts | 86° |
| 2026-04-24 23:32 | 43.04503 | -81.10645 | 1586 ft | 71 kts | 88° |
| 2026-04-24 23:33 | 43.04414 | -81.10004 | 1650 ft | 71 kts | 119° |
| 2026-04-24 23:33 | 43.04005 | -81.09627 | 1714 ft | 74 kts | 160° |
| 2026-04-24 23:33 | 43.03490 | -81.09481 | 1810 ft | 75 kts | 166° |
| 2026-04-24 23:33 | 43.02979 | -81.09402 | 1902 ft | 73 kts | 174° |
| 2026-04-24 23:34 | 43.02468 | -81.09605 | 1966 ft | 82 kts | 213° |
| 2026-04-24 23:34 | 43.02125 | -81.10269 | 2031 ft | 90 kts | 240° |
| 2026-04-24 23:34 | 43.01888 | -81.11054 | 2051 ft | 91 kts | 245° |
| 2026-04-24 23:34 | 43.01680 | -81.11863 | 2081 ft | 90 kts | 246° |
| 2026-04-24 23:35 | 43.01496 | -81.12675 | 2061 ft | 89 kts | 245° |
| 2026-04-24 23:35 | 43.01311 | -81.13481 | 2081 ft | 87 kts | 248° |
| 2026-04-24 23:35 | 43.01145 | -81.14290 | 2086 ft | 92 kts | 252° |
| 2026-04-24 23:35 | 43.01007 | -81.15149 | 2067 ft | 89 kts | 255° |
| 2026-04-24 23:36 | 43.00895 | -81.15992 | 2022 ft | 92 kts | 261° |
| 2026-04-24 23:36 | 43.00834 | -81.16858 | 2049 ft | 91 kts | 258° |
| 2026-04-24 23:36 | 43.00755 | -81.17669 | 2004 ft | 83 kts | 255° |
| 2026-04-24 23:36 | 43.00686 | -81.18467 | 1934 ft | 87 kts | 258° |
| 2026-04-24 23:37 | 43.00775 | -81.19323 | 1924 ft | 96 kts | 298° |
| 2026-04-24 23:37 | 43.01273 | -81.19921 | 1858 ft | 96 kts | 334° |
| 2026-04-24 23:37 | 43.02455 | -81.20527 | 1741 ft | 91 kts | 358° |
| 2026-04-24 23:38 | 43.03057 | -81.20412 | 1701 ft | 84 kts | 38° |
| 2026-04-24 23:38 | 43.03373 | -81.19839 | 1585 ft | 72 kts | 86° |
| 2026-04-24 23:38 | 43.03424 | -81.19160 | 1460 ft | 72 kts | 83° |
| 2026-04-24 23:38 | 43.03509 | -81.18470 | 1356 ft | 74 kts | 84° |
| 2026-04-24 23:39 | 43.03601 | -81.17848 | 1238 ft | 62 kts | 83° |
| 2026-04-24 23:39 | 43.03680 | -81.17275 | 1137 ft | 63 kts | 92° |
| 2026-04-24 23:39 | 43.03758 | -81.16666 | 1036 ft | 67 kts | 88° |
| 2026-04-24 23:39 | 43.03849 | -81.16034 | 925 ft | 66 kts | 84° |
| 2026-04-24 23:40 | 43.03929 | -81.15491 | 910 ft | 48 kts | 79° |
| 2026-04-24 23:40 | 43.04001 | -81.14994 | 927 ft | 63 kts | 79° |
| 2026-04-24 23:40 | 43.04088 | -81.14406 | 1080 ft | 61 kts | 84° |
| 2026-04-24 23:40 | 43.04151 | -81.13833 | 1211 ft | 61 kts | 86° |
| 2026-04-24 23:41 | 43.04194 | -81.13250 | 1324 ft | 62 kts | 88° |
| 2026-04-24 23:41 | 43.04254 | -81.12665 | 1399 ft | 64 kts | 86° |
| 2026-04-24 23:41 | 43.04326 | -81.12062 | 1480 ft | 67 kts | 87° |
| 2026-04-24 23:41 | 43.04321 | -81.11440 | 1607 ft | 66 kts | 111° |
| 2026-04-24 23:42 | 43.04011 | -81.10963 | 1715 ft | 71 kts | 137° |
| 2026-04-24 23:42 | 43.03563 | -81.10664 | 1828 ft | 75 kts | 161° |
| 2026-04-24 23:42 | 43.03036 | -81.10493 | 1878 ft | 80 kts | 164° |
| 2026-04-24 23:42 | 43.02474 | -81.10447 | 1964 ft | 84 kts | 189° |
| 2026-04-24 23:43 | 43.01988 | -81.10968 | 2020 ft | 96 kts | 222° |
| 2026-04-24 23:43 | 43.01628 | -81.11741 | 2074 ft | 97 kts | 243° |
| 2026-04-24 23:43 | 43.01424 | -81.12622 | 2080 ft | 99 kts | 252° |
| 2026-04-24 23:43 | 43.01308 | -81.13541 | 2032 ft | 97 kts | 257° |
| 2026-04-24 23:44 | 43.01243 | -81.14462 | 1999 ft | 96 kts | 258° |
| 2026-04-24 23:44 | 43.01178 | -81.15365 | 1948 ft | 94 kts | 261° |
| 2026-04-24 23:44 | 43.01143 | -81.16248 | 1913 ft | 92 kts | 262° |
| 2026-04-24 23:44 | 43.01107 | -81.17119 | 1915 ft | 92 kts | 262° |
| 2026-04-24 23:45 | 43.01073 | -81.17993 | 1885 ft | 96 kts | 276° |
| 2026-04-24 23:45 | 43.01342 | -81.18812 | 1829 ft | 95 kts | 308° |
| 2026-04-24 23:45 | 43.01827 | -81.19435 | 1768 ft | 97 kts | 331° |
| 2026-04-24 23:45 | 43.02429 | -81.19794 | 1709 ft | 91 kts | 353° |
| 2026-04-24 23:46 | 43.03019 | -81.19839 | 1596 ft | 77 kts | 32° |
| 2026-04-24 23:46 | 43.03352 | -81.19385 | 1484 ft | 68 kts | 74° |
| 2026-04-24 23:46 | 43.03465 | -81.18796 | 1405 ft | 61 kts | 85° |
| 2026-04-24 23:46 | 43.03539 | -81.18231 | 1306 ft | 61 kts | 83° |
| 2026-04-24 23:47 | 43.03617 | -81.17680 | 1239 ft | 60 kts | 85° |
| 2026-04-24 23:47 | 43.03703 | -81.17119 | 1142 ft | 61 kts | 90° |
| 2026-04-24 23:47 | 43.03779 | -81.16546 | 1031 ft | 59 kts | 87° |
| 2026-04-24 23:47 | 43.03855 | -81.16021 | 911 ft | 52 kts | 85° |
| 2026-04-24 23:48 | 43.03915 | -81.15593 | 910 ft | 51 kts | 77° |
| 2026-04-24 23:48 | 43.03996 | -81.15053 | 999 ft | 57 kts | 87° |
| 2026-04-24 23:48 | 43.04073 | -81.14540 | 1086 ft | 57 kts | 78° |
| 2026-04-24 23:48 | 43.04181 | -81.14016 | 1168 ft | 58 kts | 82° |
| 2026-04-24 23:49 | 43.04285 | -81.13485 | 1272 ft | 57 kts | 83° |
| 2026-04-24 23:49 | 43.04386 | -81.12956 | 1342 ft | 58 kts | 86° |
| 2026-04-24 23:49 | 43.04454 | -81.12421 | 1431 ft | 58 kts | 90° |
| 2026-04-24 23:49 | 43.04485 | -81.11873 | 1534 ft | 58 kts | 94° |
| 2026-04-24 23:50 | 43.04272 | -81.11408 | 1605 ft | 65 kts | 140° |
| 2026-04-24 23:50 | 43.03863 | -81.11118 | 1701 ft | 66 kts | 150° |
| 2026-04-24 23:50 | 43.03415 | -81.10898 | 1745 ft | 71 kts | 154° |
| 2026-04-24 23:50 | 43.02948 | -81.10681 | 1838 ft | 69 kts | 159° |
| 2026-04-24 23:51 | 43.02467 | -81.10543 | 1920 ft | 75 kts | 182° |
| 2026-04-24 23:51 | 43.02039 | -81.10979 | 2014 ft | 88 kts | 228° |
| 2026-04-24 23:51 | 43.01772 | -81.11756 | 2050 ft | 92 kts | 243° |
| 2026-04-24 23:51 | 43.01548 | -81.12574 | 2076 ft | 93 kts | 245° |
| 2026-04-24 23:52 | 43.01348 | -81.13402 | 2053 ft | 90 kts | 246° |
| 2026-04-24 23:52 | 43.01179 | -81.14209 | 2026 ft | 89 kts | 248° |
| 2026-04-24 23:52 | 43.01049 | -81.15036 | 2059 ft | 89 kts | 254° |
| 2026-04-24 23:52 | 43.01008 | -81.15902 | 2069 ft | 93 kts | 269° |
| 2026-04-24 23:53 | 43.01182 | -81.16731 | 2005 ft | 92 kts | 317° |
| 2026-04-24 23:53 | 43.01754 | -81.17092 | 1805 ft | 89 kts | 355° |
| 2026-04-24 23:53 | 43.02353 | -81.17307 | 1640 ft | 88 kts | 353° |
| 2026-04-24 23:53 | 43.02920 | -81.17368 | 1482 ft | 76 kts | 30° |
| 2026-04-24 23:54 | 43.03399 | -81.17059 | 1293 ft | 78 kts | 41° |
| 2026-04-24 23:54 | 43.03783 | -81.16601 | 1144 ft | 68 kts | 81° |
| 2026-04-24 23:54 | 43.03860 | -81.15956 | 936 ft | 67 kts | 93° |
| 2026-04-24 23:54 | 43.03945 | -81.15388 | 913 ft | 60 kts | 77° |
| 2026-04-24 23:55 | 43.04038 | -81.14786 | 1057 ft | 63 kts | 84° |
| 2026-04-24 23:55 | 43.04119 | -81.14194 | 1178 ft | 63 kts | 82° |
| 2026-04-24 23:55 | 43.04204 | -81.13610 | 1308 ft | 61 kts | 82° |
| 2026-04-24 23:55 | 43.04301 | -81.13035 | 1379 ft | 62 kts | 83° |
| 2026-04-24 23:56 | 43.04400 | -81.12457 | 1471 ft | 63 kts | 83° |
| 2026-04-24 23:56 | 43.04407 | -81.11863 | 1556 ft | 63 kts | 107° |
| 2026-04-24 23:56 | 43.04131 | -81.11369 | 1633 ft | 68 kts | 134° |
| 2026-04-24 23:56 | 43.03697 | -81.11068 | 1700 ft | 72 kts | 152° |
| 2026-04-24 23:57 | 43.03194 | -81.10952 | 1739 ft | 75 kts | 165° |
| 2026-04-24 23:57 | 43.02660 | -81.10949 | 1773 ft | 82 kts | 182° |
| 2026-04-24 23:57 | 43.02111 | -81.11332 | 1823 ft | 97 kts | 215° |
| 2026-04-24 23:57 | 43.01800 | -81.12189 | 1833 ft | 104 kts | 247° |
| 2026-04-24 23:58 | 43.01608 | -81.13118 | 1881 ft | 98 kts | 247° |
| 2026-04-24 23:58 | 43.01420 | -81.13997 | 1881 ft | 94 kts | 251° |
| 2026-04-24 23:58 | 43.01251 | -81.14857 | 1883 ft | 96 kts | 247° |
| 2026-04-24 23:58 | 43.01092 | -81.15745 | 1898 ft | 98 kts | 251° |
| 2026-04-24 23:59 | 43.00943 | -81.16658 | 1922 ft | 99 kts | 252° |
| 2026-04-24 23:59 | 43.00776 | -81.17567 | 1950 ft | 97 kts | 245° |
| 2026-04-24 23:59 | 43.00628 | -81.18432 | 1963 ft | 90 kts | 249° |
| 2026-04-24 23:59 | 43.00496 | -81.19289 | 1954 ft | 93 kts | 252° |
| 2026-04-25 00:00 | 43.00391 | -81.20142 | 1962 ft | 91 kts | 256° |
| 2026-04-25 00:00 | 43.00299 | -81.21021 | 1966 ft | 96 kts | 257° |
| 2026-04-25 00:00 | 43.00354 | -81.21924 | 1964 ft | 98 kts | 293° |
| 2026-04-25 00:00 | 43.00802 | -81.22643 | 1960 ft | 102 kts | 320° |
| 2026-04-25 00:01 | 43.01423 | -81.23091 | 1993 ft | 100 kts | 352° |
| 2026-04-25 00:01 | 43.02114 | -81.23174 | 1996 ft | 99 kts | 9° |
| 2026-04-25 00:01 | 43.02747 | -81.22877 | 1984 ft | 96 kts | 45° |
| 2026-04-25 00:01 | 43.03052 | -81.22113 | 1984 ft | 93 kts | 82° |
| 2026-04-25 00:02 | 43.03139 | -81.21251 | 1926 ft | 92 kts | 92° |
| 2026-04-25 00:02 | 43.03209 | -81.20427 | 1769 ft | 85 kts | 84° |
| 2026-04-25 00:02 | 43.03325 | -81.19673 | 1573 ft | 79 kts | 82° |
| 2026-04-25 00:02 | 43.03433 | -81.18953 | 1431 ft | 74 kts | 82° |
| 2026-04-25 00:03 | 43.03524 | -81.18297 | 1322 ft | 69 kts | 84° |
| 2026-04-25 00:03 | 43.03614 | -81.17701 | 1221 ft | 61 kts | 88° |
| 2026-04-25 00:03 | 43.03695 | -81.17131 | 1161 ft | 61 kts | 85° |
| 2026-04-25 00:03 | 43.03777 | -81.16569 | 1016 ft | 58 kts | 85° |
| 2026-04-25 00:04 | 43.03851 | -81.16047 | 911 ft | 50 kts | 82° |
| 2026-04-25 00:04 | 43.03913 | -81.15624 | 910 ft | 53 kts | 78° |
| 2026-04-25 00:04 | 43.03999 | -81.15082 | 1036 ft | 57 kts | 80° |
| 2026-04-25 00:04 | 43.04093 | -81.14557 | 1170 ft | 58 kts | 81° |
| 2026-04-25 00:05 | 43.04206 | -81.14022 | 1289 ft | 59 kts | 77° |
| 2026-04-25 00:05 | 43.04323 | -81.13475 | 1397 ft | 59 kts | 81° |
| 2026-04-25 00:05 | 43.04433 | -81.12898 | 1489 ft | 62 kts | 79° |
| 2026-04-25 00:05 | 43.04499 | -81.12299 | 1585 ft | 65 kts | 100° |
| 2026-04-25 00:06 | 43.04204 | -81.11804 | 1688 ft | 74 kts | 141° |
| 2026-04-25 00:06 | 43.03694 | -81.11607 | 1832 ft | 76 kts | 167° |
| 2026-04-25 00:06 | 43.03124 | -81.11598 | 1849 ft | 83 kts | 168° |
| 2026-04-25 00:06 | 43.02542 | -81.11622 | 1871 ft | 87 kts | 179° |
| 2026-04-25 00:07 | 43.01978 | -81.11949 | 1936 ft | 90 kts | 212° |
| 2026-04-25 00:07 | 43.01596 | -81.12645 | 1983 ft | 97 kts | 237° |
| 2026-04-25 00:07 | 43.01347 | -81.13530 | 2000 ft | 98 kts | 242° |
| 2026-04-25 00:07 | 43.01127 | -81.14387 | 2019 ft | 94 kts | 241° |
| 2026-04-25 00:08 | 43.00935 | -81.15219 | 2024 ft | 91 kts | 249° |
| 2026-04-25 00:08 | 43.00821 | -81.16089 | 1986 ft | 93 kts | 256° |
| 2026-04-25 00:08 | 43.00755 | -81.16960 | 1987 ft | 92 kts | 261° |
| 2026-04-25 00:08 | 43.00860 | -81.17841 | 1911 ft | 97 kts | 289° |
| 2026-04-25 00:09 | 43.01286 | -81.18567 | 1824 ft | 98 kts | 328° |
| 2026-04-25 00:09 | 43.01844 | -81.19009 | 1750 ft | 88 kts | 343° |
| 2026-04-25 00:09 | 43.02406 | -81.19310 | 1643 ft | 86 kts | 355° |
| 2026-04-25 00:09 | 43.02969 | -81.19447 | 1560 ft | 78 kts | 12° |
| 2026-04-25 00:10 | 43.03406 | -81.19143 | 1456 ft | 69 kts | 69° |
| 2026-04-25 00:10 | 43.03503 | -81.18538 | 1377 ft | 59 kts | 88° |
| 2026-04-25 00:10 | 43.03576 | -81.18011 | 1249 ft | 55 kts | 84° |
| 2026-04-25 00:10 | 43.03645 | -81.17508 | 1175 ft | 53 kts | 87° |
| 2026-04-25 00:11 | 43.03721 | -81.16986 | 1082 ft | 57 kts | 85° |
| 2026-04-25 00:11 | 43.03766 | -81.16636 | 991 ft | 56 kts | 83° |
| 2026-04-25 00:11 | 43.03852 | -81.16046 | 909 ft | 23 kts | 76° |
| 2026-04-25 00:11 | 43.03863 | -81.15890 | 910 ft | 10 kts | 110° |
| 2026-04-25 00:12 | 43.03801 | -81.15807 | 908 ft | 17 kts | 137° |
| 2026-04-25 00:12 | 43.03770 | -81.15771 | 907 ft | 0 kts | 137° |
| 2026-04-25 00:12 | 43.03748 | -81.15745 | 906 ft | 8 kts | 138° |
| 2026-04-25 00:13 | 43.03711 | -81.15727 | 896 ft | 5 kts | 204° |
| 2026-04-25 00:13 | 43.03698 | -81.15779 | 906 ft | 12 kts | 260° |
| 2026-04-25 00:13 | 43.03686 | -81.15863 | 907 ft | 11 kts | 264° |
| 2026-04-25 00:13 | 43.03672 | -81.15965 | 908 ft | 11 kts | 255° |
| 2026-04-25 00:14 | 43.03661 | -81.16029 | 908 ft | 9 kts | 262° |
| 2026-04-25 00:14 | 43.03649 | -81.16127 | 908 ft | 11 kts | 256° |
| 2026-04-25 00:14 | 43.03639 | -81.16189 | 909 ft | 6 kts | 242° |
| 2026-04-25 00:14 | 43.03597 | -81.16232 | 908 ft | 5 kts | 176° |
| 2026-04-25 00:15 | 43.03554 | -81.16214 | 907 ft | 7 kts | 187° |
| 2026-04-25 00:15 | 43.03530 | -81.16215 | 907 ft | 5 kts | 135° |
| 2026-04-25 00:15 | 43.03529 | -81.16193 | 907 ft | 0 kts | 82° |